createdAt,value
2023-03-18T00:01:41.387Z,12
2023-03-18T00:03:42.836Z,11.9
2023-03-18T00:05:44.179Z,11.9
2023-03-18T00:07:45.637Z,11.9
2023-03-18T00:09:50.294Z,11.8
2023-03-18T00:11:51.682Z,11.7
2023-03-18T00:13:53.115Z,11.5
2023-03-18T00:15:54.596Z,11.6
2023-03-18T00:19:57.295Z,11.3
2023-03-18T00:21:58.680Z,11.2
2023-03-18T00:26:04.779Z,11.4
2023-03-18T00:29:08.510Z,11.3
2023-03-18T00:31:10.006Z,11.3
2023-03-18T00:37:17.456Z,11.2
2023-03-18T00:41:20.255Z,11.2
2023-03-18T00:49:25.852Z,11.1
2023-03-18T00:59:36.155Z,10.6
2023-03-18T01:01:37.667Z,10.8
2023-03-18T01:03:38.917Z,10.8
2023-03-18T01:05:43.658Z,10.8
2023-03-18T01:11:47.860Z,10.9
2023-03-18T01:15:50.661Z,10.9
2023-03-18T01:21:58.142Z,10.5
2023-03-18T01:23:59.557Z,10.6
2023-03-18T01:26:22.407Z,10.4
2023-03-18T01:28:23.786Z,10.4
2023-03-18T01:32:29.931Z,10.4
2023-03-18T01:38:34.092Z,10.5
2023-03-18T01:44:38.302Z,10.5
2023-03-18T01:46:43.006Z,10.4
2023-03-18T01:48:44.399Z,10.4
2023-03-18T01:54:48.589Z,9.9
2023-03-18T01:56:49.996Z,9.9
2023-03-18T01:58:51.380Z,9.9
2023-03-18T02:05:00.411Z,10.2
2023-03-18T02:11:04.563Z,10.3
2023-03-18T02:17:12.045Z,10.3
2023-03-18T02:20:15.814Z,10.2
2023-03-18T02:22:17.199Z,10.2
2023-03-18T02:24:18.602Z,10.2
2023-03-18T02:28:24.715Z,10.1
2023-03-18T02:32:27.649Z,10.1
2023-03-18T02:34:28.892Z,10.1
2023-03-18T02:36:30.291Z,10
2023-03-18T02:38:31.663Z,10.1
2023-03-18T02:40:33.542Z,10
2023-03-18T02:42:37.792Z,9.9
2023-03-18T02:44:39.188Z,10
2023-03-18T02:46:40.588Z,10
2023-03-18T02:48:42.018Z,10
2023-03-18T02:50:43.400Z,10
2023-03-18T02:52:44.824Z,10.1
2023-03-18T02:58:52.343Z,10
2023-03-18T03:04:56.510Z,9.8
2023-03-18T03:11:04.021Z,9.6
2023-03-18T03:15:06.814Z,9.7
2023-03-18T03:16:09.241Z,9.7
2023-03-18T03:18:10.566Z,9.7
2023-03-18T03:20:11.986Z,9.8
2023-03-18T03:22:13.383Z,9.9
2023-03-18T03:24:18.103Z,10.1
2023-03-18T03:26:19.490Z,10.1
2023-03-18T03:38:31.197Z,10.2
2023-03-18T03:42:33.980Z,10.3
2023-03-18T03:44:35.387Z,10.4
2023-03-18T03:52:44.260Z,10.3
2023-03-18T03:54:45.693Z,10.3
2023-03-18T03:56:47.067Z,10.4
2023-03-18T04:02:51.439Z,10.5
2023-03-18T04:04:52.655Z,10.5
2023-03-18T04:06:57.361Z,10.5
2023-03-18T04:11:00.152Z,10.5
2023-03-18T04:12:02.492Z,10.7
2023-03-18T04:14:03.887Z,10.7
2023-03-18T04:16:05.377Z,10.7
2023-03-18T04:18:06.708Z,10.7
2023-03-18T04:20:11.432Z,10.8
2023-03-18T04:22:12.804Z,10.8
2023-03-18T04:24:14.219Z,10.8
2023-03-18T04:26:15.602Z,10.8
2023-03-18T04:30:18.397Z,10.5
2023-03-18T04:32:19.818Z,10.4
2023-03-18T04:34:24.484Z,10.4
2023-03-18T04:36:25.873Z,10.4
2023-03-18T04:38:27.258Z,10.3
2023-03-18T04:42:30.052Z,10.3
2023-03-18T04:44:31.432Z,10.3
2023-03-18T04:46:32.888Z,10.3
2023-03-18T04:48:37.563Z,10.1
2023-03-18T04:50:38.915Z,10.1
2023-03-18T04:52:40.319Z,10.1
2023-03-18T04:54:41.765Z,10
2023-03-18T04:56:43.108Z,10.1
2023-03-18T04:58:44.503Z,10
2023-03-18T05:00:45.992Z,10
2023-03-18T05:02:50.619Z,10
2023-03-18T05:04:52.034Z,10
2023-03-18T05:06:53.434Z,10.1
2023-03-18T05:09:16.614Z,10.1
2023-03-18T05:11:18.036Z,10.1
2023-03-18T05:13:19.405Z,10.1
2023-03-18T05:15:24.100Z,10.1
2023-03-18T05:17:25.513Z,10.1
2023-03-18T05:19:26.897Z,10.1
2023-03-18T05:21:30.434Z,10.1
2023-03-18T05:23:29.704Z,10.1
2023-03-18T05:25:31.363Z,10.1
2023-03-18T05:27:32.525Z,10.1
2023-03-18T05:29:37.198Z,10.1
2023-03-18T05:31:38.660Z,10.1
2023-03-18T05:33:39.978Z,10.1
2023-03-18T05:35:41.446Z,10.1
2023-03-18T05:37:42.748Z,10.1
2023-03-18T05:39:45.027Z,10.1
2023-03-18T05:41:45.538Z,10.1
2023-03-18T05:43:50.230Z,10.2
2023-03-18T05:45:51.651Z,10.2
2023-03-18T05:47:53.078Z,10.2
2023-03-18T05:49:54.404Z,10.1
2023-03-18T05:51:55.808Z,10.1
2023-03-18T05:58:03.331Z,10.1
2023-03-18T06:00:04.692Z,10.1
2023-03-18T06:02:06.112Z,10.2
2023-03-18T06:07:11.210Z,10.1
2023-03-18T06:09:12.634Z,10.1
2023-03-18T06:11:17.280Z,10.2
2023-03-18T06:13:18.670Z,10.2
2023-03-18T06:15:20.100Z,10.1
2023-03-18T06:17:21.491Z,10.2
2023-03-18T06:19:22.863Z,10.2
2023-03-18T06:21:24.283Z,10.2
2023-03-18T06:23:25.670Z,10.2
2023-03-18T06:25:30.569Z,10.2
2023-03-18T06:27:31.748Z,10.2
2023-03-18T06:29:33.164Z,10.2
2023-03-18T06:31:34.549Z,10.2
2023-03-18T06:33:35.945Z,10.3
2023-03-18T06:35:37.379Z,10.2
2023-03-18T06:37:38.731Z,10.3
2023-03-18T06:39:43.410Z,10.3
2023-03-18T06:41:44.829Z,10.3
2023-03-18T06:43:46.206Z,10.3
2023-03-18T06:45:47.612Z,10.4
2023-03-18T06:47:48.998Z,10.4
2023-03-18T06:49:50.425Z,10.4
2023-03-18T06:51:51.813Z,10.5
2023-03-18T06:53:56.478Z,11.3
2023-03-18T06:55:57.898Z,11.4
2023-03-18T06:59:01.646Z,11
2023-03-18T07:01:03.126Z,10.9
2023-03-18T07:05:05.840Z,10.9
2023-03-18T07:07:10.567Z,10.8
2023-03-18T07:09:11.958Z,10.9
2023-03-18T07:11:13.348Z,10.9
2023-03-18T07:13:14.772Z,11
2023-03-18T07:15:16.170Z,11
2023-03-18T07:17:17.564Z,11.1
2023-03-18T07:19:20.327Z,11.2
2023-03-18T07:21:23.674Z,11.2
2023-03-18T07:23:25.070Z,11.2
2023-03-18T07:25:26.502Z,11.3
2023-03-18T07:27:27.906Z,11.3
2023-03-18T07:29:29.279Z,11.2
2023-03-18T07:33:32.100Z,11.4
2023-03-18T07:35:36.792Z,12.2
2023-03-18T07:37:38.143Z,12.2
2023-03-18T07:43:42.341Z,14.2
2023-03-18T07:47:47.098Z,13.6
2023-03-18T07:49:50.140Z,12.4
2023-03-18T07:51:51.208Z,12.3
2023-03-18T07:53:52.630Z,12.2
2023-03-18T07:56:57.903Z,13
2023-03-18T07:58:59.265Z,14.5
2023-03-18T08:05:06.879Z,15.3
2023-03-18T08:13:12.447Z,15
2023-03-18T08:21:21.251Z,15.7
2023-03-18T08:23:22.669Z,16.4
2023-03-18T08:31:31.562Z,15.3
2023-03-18T08:33:32.951Z,14.5
2023-03-18T08:35:34.465Z,14.4
2023-03-18T08:37:35.750Z,15
2023-03-18T08:39:37.150Z,14.9
2023-03-18T08:41:38.520Z,14.9
2023-03-18T08:43:39.925Z,14.8
2023-03-18T08:45:44.660Z,14.2
2023-03-18T08:47:46.017Z,14.8
2023-03-18T08:49:48.730Z,16.1
2023-03-18T08:52:04.277Z,15.1
2023-03-18T08:54:05.665Z,14.5
2023-03-18T08:56:07.112Z,15.1
2023-03-18T08:58:11.752Z,15
2023-03-18T09:00:13.142Z,14.6
2023-03-18T09:02:14.570Z,14.2
2023-03-18T09:04:15.979Z,14.5
2023-03-18T09:06:17.345Z,15.2
2023-03-18T09:10:20.139Z,14.6
2023-03-18T09:12:24.811Z,16.6
2023-03-18T09:14:26.180Z,17.1
2023-03-18T09:16:27.616Z,18.4
2023-03-18T09:18:28.977Z,18.7
2023-03-18T09:22:31.720Z,18.4
2023-03-18T09:28:39.212Z,18.1
2023-03-18T09:32:42.001Z,18.5
2023-03-18T09:34:43.305Z,18.5
2023-03-18T09:36:44.693Z,18.2
2023-03-18T09:38:46.177Z,18.5
2023-03-18T09:40:50.759Z,18.3
2023-03-18T09:42:52.168Z,18.3
2023-03-18T09:44:53.535Z,17.2
2023-03-18T09:45:57.153Z,17
2023-03-18T09:49:58.648Z,17.9
2023-03-18T10:00:08.698Z,18.2
2023-03-18T10:02:09.981Z,18.7
2023-03-18T10:04:11.444Z,18.6
2023-03-18T10:06:12.752Z,17.8
2023-03-18T10:08:17.430Z,17.1
2023-03-18T10:10:18.789Z,17.5
2023-03-18T10:12:20.154Z,17.6
2023-03-18T10:14:21.514Z,18
2023-03-18T10:16:23.032Z,18.6
2023-03-18T10:18:24.237Z,18.7
2023-03-18T10:20:25.514Z,18.2
2023-03-18T10:24:31.496Z,17.3
2023-03-18T10:26:32.843Z,16.9
2023-03-18T10:28:34.230Z,17.2
2023-03-18T10:30:35.581Z,17.2
2023-03-18T10:32:49.075Z,17
2023-03-18T10:34:38.307Z,16.7
2023-03-18T10:36:43.020Z,16.5
2023-03-18T10:38:44.553Z,16.3
2023-03-18T10:40:45.954Z,16.4
2023-03-18T10:41:48.251Z,16.6
2023-03-18T10:45:50.804Z,16.4
2023-03-18T10:47:52.130Z,16.4
2023-03-18T10:49:56.820Z,16.4
2023-03-18T10:51:58.130Z,16.7
2023-03-18T10:53:59.453Z,16.7
2023-03-18T10:58:01.970Z,16.5
2023-03-18T11:00:04.122Z,16.2
2023-03-18T11:02:05.513Z,16.4
2023-03-18T11:04:09.924Z,16.8
2023-03-18T11:06:11.196Z,16.9
2023-03-18T11:08:12.452Z,16.9
2023-03-18T11:10:13.767Z,16.5
2023-03-18T11:14:16.329Z,16.3
2023-03-18T11:18:22.188Z,16.6
2023-03-18T11:20:23.582Z,16.7
2023-03-18T11:22:24.824Z,16.9
2023-03-18T11:36:37.417Z,17.4
2023-03-18T11:37:39.778Z,17.6
2023-03-18T11:39:41.161Z,17.6
2023-03-18T11:41:42.477Z,17.5
2023-03-18T11:43:43.751Z,17.9
2023-03-18T11:45:48.218Z,17.7
2023-03-18T11:47:49.579Z,17.7
2023-03-18T11:49:50.817Z,17.6
2023-03-18T11:51:52.139Z,17.4
2023-03-18T11:53:53.459Z,17.1
2023-03-18T11:55:54.688Z,17.3
2023-03-18T11:57:55.952Z,17.2
2023-03-18T12:02:01.828Z,17.9
2023-03-18T12:04:03.143Z,18.1
2023-03-18T12:06:04.395Z,17.3
2023-03-18T12:08:05.664Z,17.3
2023-03-18T12:10:06.946Z,17.7
2023-03-18T12:12:08.266Z,17.7
2023-03-18T12:14:12.772Z,17.9
2023-03-18T12:16:14.174Z,17.3
2023-03-18T12:18:15.474Z,17.1
2023-03-18T12:20:16.719Z,17
2023-03-18T12:22:19.486Z,17.1
2023-03-18T12:24:19.222Z,16.9
2023-03-18T12:26:20.533Z,16.7
2023-03-18T12:28:25.175Z,16.7
2023-03-18T12:30:26.425Z,16.7
2023-03-18T12:32:27.712Z,16.8
2023-03-18T12:34:54.300Z,16.9
2023-03-18T12:36:55.660Z,16.9
2023-03-18T12:38:56.902Z,16.7
2023-03-18T12:41:01.392Z,16.6
2023-03-18T12:43:02.687Z,16.6
2023-03-18T12:45:03.983Z,16.6
2023-03-18T12:47:05.297Z,16.6
2023-03-18T12:49:06.665Z,16.6
2023-03-18T12:59:16.477Z,16.9
2023-03-18T13:07:21.648Z,16.6
2023-03-18T13:09:26.269Z,16.4
2023-03-18T13:13:28.841Z,16.3
2023-03-18T13:15:30.136Z,16.2
2023-03-18T13:17:31.468Z,16.2
2023-03-18T13:19:32.850Z,16
2023-03-18T13:21:34.142Z,16
2023-03-18T13:25:39.897Z,15.8
2023-03-18T13:27:41.292Z,15.8
2023-03-18T13:28:43.624Z,15.7
2023-03-18T13:36:52.462Z,15.5
2023-03-18T13:47:00.769Z,15.8
2023-03-18T13:49:02.132Z,15.8
2023-03-18T13:53:08.189Z,15.7
2023-03-18T13:55:09.539Z,15.6
2023-03-18T13:57:10.932Z,15.3
2023-03-18T13:59:12.316Z,14.9
2023-03-18T14:01:13.779Z,14.6
2023-03-18T14:03:15.125Z,14.3
2023-03-18T14:05:19.760Z,14.1
2023-03-18T14:07:21.129Z,14.1
2023-03-18T14:09:22.528Z,14
2023-03-18T14:11:23.931Z,13.9
2023-03-18T14:13:25.298Z,14
2023-03-18T14:15:26.674Z,14.1
2023-03-18T14:17:28.049Z,14.1
2023-03-18T14:19:32.790Z,14.1
2023-03-18T14:21:34.183Z,14.2
2023-03-18T14:23:35.592Z,14.2
2023-03-18T14:24:38.081Z,14.2
2023-03-18T14:26:39.295Z,14.2
2023-03-18T14:32:46.843Z,14.4
2023-03-18T14:34:48.166Z,14.4
2023-03-18T14:38:50.920Z,14.5
2023-03-18T14:40:52.298Z,14.6
2023-03-18T14:44:55.091Z,14.6
2023-03-18T14:46:59.834Z,14.5
2023-03-18T14:55:05.301Z,15
2023-03-18T14:57:06.719Z,15.1
2023-03-18T14:59:08.101Z,15.3
2023-03-18T15:01:12.846Z,15.4
2023-03-18T15:03:14.223Z,15.5
2023-03-18T15:05:15.600Z,15.7
2023-03-18T15:07:16.972Z,15.8
2023-03-18T15:09:18.354Z,15.7
2023-03-18T15:11:19.731Z,15.5
2023-03-18T15:13:21.123Z,15.5
2023-03-18T15:15:25.819Z,15.5
2023-03-18T15:17:27.254Z,15.6
2023-03-18T15:19:28.643Z,15.5
2023-03-18T15:26:35.136Z,15.9
2023-03-18T15:28:39.795Z,16.2
2023-03-18T15:30:41.194Z,16.2
2023-03-18T15:32:42.614Z,16.5
2023-03-18T15:34:43.975Z,16.8
2023-03-18T15:36:45.336Z,16.7
2023-03-18T15:38:46.760Z,16.3
2023-03-18T15:40:48.105Z,16.2
2023-03-18T15:42:52.814Z,16.9
2023-03-18T15:44:54.198Z,17.1
2023-03-18T15:46:55.607Z,16.9
2023-03-18T15:48:56.974Z,17
2023-03-18T15:50:58.385Z,16.6
2023-03-18T15:52:59.710Z,16.5
2023-03-18T15:55:01.152Z,18.9
2023-03-18T15:57:05.785Z,20.4
2023-03-18T15:59:07.169Z,20.4
2023-03-18T16:11:18.671Z,19
2023-03-18T16:15:21.341Z,19
2023-03-18T16:19:45.418Z,18.8
2023-03-18T16:25:52.634Z,18.7
2023-03-18T16:27:54.104Z,19.1
2023-03-18T16:29:55.567Z,17.8
2023-03-18T16:31:56.769Z,16.1
2023-03-18T16:33:57.993Z,15.4
2023-03-18T16:35:59.381Z,15
2023-03-18T16:38:04.035Z,15.3
2023-03-18T16:40:05.392Z,15.1
2023-03-18T16:42:06.765Z,14.9
2023-03-18T16:44:08.152Z,14.8
2023-03-18T16:46:09.615Z,14.8
2023-03-18T16:48:10.956Z,15
2023-03-18T16:50:12.344Z,14.9
2023-03-18T16:52:17.039Z,14.8
2023-03-18T16:54:18.422Z,14.8
2023-03-18T16:56:19.794Z,14.9
2023-03-18T16:58:21.247Z,15
2023-03-18T17:00:22.602Z,15.1
2023-03-18T17:02:23.974Z,15
2023-03-18T17:04:25.444Z,15.3
2023-03-18T17:06:30.141Z,15.1
2023-03-18T17:08:31.478Z,15
2023-03-18T17:11:35.228Z,14.5
2023-03-18T17:13:36.609Z,14.4
2023-03-18T17:15:37.990Z,14.1
2023-03-18T17:17:39.426Z,14
2023-03-18T17:19:44.108Z,13.9
2023-03-18T17:21:45.492Z,13.8
2023-03-18T17:23:46.874Z,13.6
2023-03-18T17:25:48.277Z,13.5
2023-03-18T17:27:49.692Z,13.3
2023-03-18T17:29:51.133Z,13.2
2023-03-18T17:31:52.451Z,13.1
2023-03-18T17:33:57.171Z,13
2023-03-18T17:35:58.569Z,12.9
2023-03-18T17:38:00.033Z,12.8
2023-03-18T17:40:01.381Z,12.7
2023-03-18T17:42:02.761Z,12.6
2023-03-18T17:44:04.180Z,12.6
2023-03-18T17:46:05.698Z,12.5
2023-03-18T17:48:10.256Z,12.7
2023-03-18T17:50:11.665Z,12.7
2023-03-18T17:56:15.985Z,12.7
2023-03-18T17:58:17.473Z,12.6
2023-03-18T18:04:24.792Z,11.2
2023-03-18T18:06:26.143Z,10.7
2023-03-18T18:07:28.487Z,10.8
2023-03-18T18:09:29.892Z,10.8
2023-03-18T18:11:31.310Z,10.6
2023-03-18T18:13:32.709Z,10.4
2023-03-18T18:15:37.442Z,10.5
2023-03-18T18:17:38.794Z,10.5
2023-03-18T18:19:40.182Z,10.4
2023-03-18T18:21:41.608Z,10.7
2023-03-18T18:23:43.019Z,10.7
2023-03-18T18:27:45.826Z,10.4
2023-03-18T18:29:50.504Z,10.4
2023-03-18T18:31:51.950Z,10.4
2023-03-18T18:33:53.326Z,10.6
2023-03-18T18:37:56.137Z,10.7
2023-03-18T18:39:57.535Z,10.7
2023-03-18T18:48:06.431Z,10.5
2023-03-18T18:50:07.851Z,10.3
2023-03-18T18:52:09.235Z,10.2
2023-03-18T18:56:12.029Z,10.1
2023-03-18T18:58:16.687Z,10.1
2023-03-18T19:00:18.110Z,10.1
2023-03-18T19:02:19.496Z,10
2023-03-18T19:03:21.877Z,9.8
2023-03-18T19:05:23.273Z,9.7
2023-03-18T19:07:24.667Z,9.6
2023-03-18T19:09:26.062Z,9.8
2023-03-18T19:11:30.789Z,9.5
2023-03-18T19:13:32.187Z,9.5
2023-03-18T19:21:37.811Z,9.7
2023-03-18T19:23:39.189Z,9.8
2023-03-18T19:29:46.676Z,9.7
2023-03-18T19:31:48.170Z,9.5
2023-03-18T19:33:49.491Z,9.6
2023-03-18T19:35:52.499Z,9.5
2023-03-18T19:39:58.519Z,9.6
2023-03-18T19:41:59.921Z,9.7
2023-03-18T19:44:01.302Z,9.8
2023-03-18T19:46:02.752Z,9.8
2023-03-18T19:50:05.513Z,10
2023-03-18T19:52:06.919Z,10.1
2023-03-18T19:54:11.651Z,9.9
2023-03-18T19:56:13.301Z,9.9
2023-03-18T19:58:14.500Z,10.1
2023-03-18T20:00:31.168Z,10.2
2023-03-18T20:06:38.628Z,9.7
2023-03-18T20:16:45.750Z,10
2023-03-18T20:18:47.041Z,10.3
2023-03-18T20:20:51.738Z,10.4
2023-03-18T20:26:55.922Z,10.3
2023-03-18T20:28:57.338Z,10.1
2023-03-18T20:30:58.726Z,10
2023-03-18T20:37:06.204Z,9.9
2023-03-18T20:39:07.614Z,9.8
2023-03-18T20:47:13.182Z,12.7
2023-03-18T20:49:17.906Z,12.8
2023-03-18T20:51:19.272Z,12.9
2023-03-18T20:54:23.070Z,12.8
2023-03-18T20:56:24.425Z,12.8
2023-03-18T20:58:25.812Z,13
2023-03-18T21:00:27.210Z,12.9
2023-03-18T21:02:31.951Z,12.8
2023-03-18T21:04:33.371Z,12.7
2023-03-18T21:06:34.742Z,12.6
2023-03-18T21:08:36.106Z,12.7
2023-03-18T21:10:37.516Z,12.6
2023-03-18T21:18:46.474Z,12.3
2023-03-18T21:22:49.247Z,12
2023-03-18T21:24:50.630Z,11.9
2023-03-18T21:27:03.862Z,12
2023-03-18T21:28:53.385Z,12
2023-03-18T21:30:58.646Z,11.9
2023-03-18T21:32:59.528Z,11.8
2023-03-18T21:35:00.885Z,11.7
2023-03-18T21:37:02.317Z,11.6
2023-03-18T21:39:03.720Z,11.5
2023-03-18T21:41:05.136Z,11.6
2023-03-18T21:43:06.499Z,11.5
2023-03-18T21:45:11.240Z,11.5
2023-03-18T21:47:12.625Z,11.5
2023-03-18T21:49:14.018Z,11.5
2023-03-18T21:56:20.564Z,11.3
2023-03-18T22:06:30.917Z,11.2
2023-03-18T22:08:32.335Z,11.2
2023-03-18T22:10:33.715Z,11.2
2023-03-18T22:12:38.424Z,11.1
2023-03-18T22:14:39.834Z,11.1
2023-03-18T22:16:41.257Z,11.1
2023-03-18T22:18:42.630Z,11.2
2023-03-18T22:20:44.039Z,11.2
2023-03-18T22:26:51.536Z,11.1
2023-03-18T22:30:54.395Z,11
2023-03-18T22:38:59.989Z,10.8
2023-03-18T22:48:11.265Z,10.6
2023-03-18T22:50:12.687Z,10.6
2023-03-18T22:52:14.112Z,10.6
2023-03-18T22:56:20.210Z,10.6
2023-03-18T22:58:21.617Z,10.6
2023-03-18T23:00:23.053Z,10.6
2023-03-18T23:02:24.411Z,10.5
2023-03-18T23:04:25.805Z,10.5
2023-03-18T23:06:27.485Z,10.4
2023-03-18T23:08:31.926Z,10.4
2023-03-18T23:10:33.333Z,10.4
2023-03-18T23:12:34.761Z,10.4
2023-03-18T23:14:36.119Z,10.4
2023-03-18T23:20:40.346Z,10.6
2023-03-18T23:24:46.500Z,10.6
2023-03-18T23:30:50.628Z,11.2
2023-03-18T23:32:52.039Z,11.2
2023-03-18T23:34:53.404Z,11.3
2023-03-18T23:36:58.139Z,11.4
2023-03-18T23:41:00.915Z,11.5
2023-03-18T23:43:23.701Z,11.6
2023-03-18T23:49:31.246Z,11.2
2023-03-18T23:51:32.638Z,11.1
2023-03-18T23:53:34.025Z,11.2
2023-03-18T23:57:36.843Z,11
2023-03-18T23:59:38.223Z,11
